sensor_id;sensor_type;location;lat;lon;timestamp;P1;durP1;ratioP1;P2;durP2;ratioP2
14592;SDS011;7383;52.354;9.756;2022-12-01T00:01:00;21.77;;;18.10;;
14592;SDS011;7383;52.354;9.756;2022-12-01T00:03:28;21.75;;;18.30;;
14592;SDS011;7383;52.354;9.756;2022-12-01T00:05:58;19.77;;;17.27;;
14592;SDS011;7383;52.354;9.756;2022-12-01T00:08:25;19.80;;;17.38;;
14592;SDS011;7383;52.354;9.756;2022-12-01T00:10:53;21.98;;;17.30;;
14592;SDS011;7383;52.354;9.756;2022-12-01T00:13:19;20.67;;;17.58;;
14592;SDS011;7383;52.354;9.756;2022-12-01T00:15:46;21.25;;;17.38;;
14592;SDS011;7383;52.354;9.756;2022-12-01T00:18:16;19.75;;;17.27;;
14592;SDS011;7383;52.354;9.756;2022-12-01T00:20:42;19.92;;;16.92;;
14592;SDS011;7383;52.354;9.756;2022-12-01T00:23:09;20.40;;;17.25;;
14592;SDS011;7383;52.354;9.756;2022-12-01T00:25:37;20.52;;;18.02;;
14592;SDS011;7383;52.354;9.756;2022-12-01T00:28:04;25.75;;;20.00;;
14592;SDS011;7383;52.354;9.756;2022-12-01T00:30:32;20.25;;;17.98;;
14592;SDS011;7383;52.354;9.756;2022-12-01T00:32:59;21.88;;;18.58;;
14592;SDS011;7383;52.354;9.756;2022-12-01T00:35:27;20.88;;;18.02;;
14592;SDS011;7383;52.354;9.756;2022-12-01T00:37:54;23.48;;;18.45;;
14592;SDS011;7383;52.354;9.756;2022-12-01T00:40:20;22.63;;;18.67;;
14592;SDS011;7383;52.354;9.756;2022-12-01T00:42:46;21.33;;;18.35;;
14592;SDS011;7383;52.354;9.756;2022-12-01T00:45:13;21.70;;;18.42;;
14592;SDS011;7383;52.354;9.756;2022-12-01T00:47:39;23.20;;;19.13;;
14592;SDS011;7383;52.354;9.756;2022-12-01T00:50:06;21.50;;;18.92;;
14592;SDS011;7383;52.354;9.756;2022-12-01T00:52:34;22.38;;;18.40;;
14592;SDS011;7383;52.354;9.756;2022-12-01T00:55:01;23.42;;;19.65;;
14592;SDS011;7383;52.354;9.756;2022-12-01T00:57:27;24.67;;;19.30;;
14592;SDS011;7383;52.354;9.756;2022-12-01T00:59:54;22.20;;;18.38;;
14592;SDS011;7383;52.354;9.756;2022-12-01T01:02:20;23.55;;;19.45;;
14592;SDS011;7383;52.354;9.756;2022-12-01T01:04:47;21.73;;;18.40;;
14592;SDS011;7383;52.354;9.756;2022-12-01T01:07:14;23.58;;;19.30;;
14592;SDS011;7383;52.354;9.756;2022-12-01T01:09:42;24.13;;;19.83;;
14592;SDS011;7383;52.354;9.756;2022-12-01T01:12:08;25.60;;;20.13;;
14592;SDS011;7383;52.354;9.756;2022-12-01T01:14:35;23.02;;;19.25;;
14592;SDS011;7383;52.354;9.756;2022-12-01T01:17:01;23.20;;;19.67;;
14592;SDS011;7383;52.354;9.756;2022-12-01T01:19:28;27.10;;;20.63;;
14592;SDS011;7383;52.354;9.756;2022-12-01T01:21:54;22.85;;;18.67;;
14592;SDS011;7383;52.354;9.756;2022-12-01T01:24:21;24.45;;;19.30;;
14592;SDS011;7383;52.354;9.756;2022-12-01T01:26:49;24.20;;;20.10;;
14592;SDS011;7383;52.354;9.756;2022-12-01T01:29:15;23.67;;;19.63;;
14592;SDS011;7383;52.354;9.756;2022-12-01T01:31:42;25.70;;;20.17;;
14592;SDS011;7383;52.354;9.756;2022-12-01T01:34:08;24.13;;;19.95;;
14592;SDS011;7383;52.354;9.756;2022-12-01T01:36:35;24.58;;;19.92;;
14592;SDS011;7383;52.354;9.756;2022-12-01T01:39:01;24.70;;;20.27;;
14592;SDS011;7383;52.354;9.756;2022-12-01T01:41:29;27.75;;;20.80;;
14592;SDS011;7383;52.354;9.756;2022-12-01T01:43:57;26.35;;;21.65;;
14592;SDS011;7383;52.354;9.756;2022-12-01T01:46:26;24.38;;;20.48;;
14592;SDS011;7383;52.354;9.756;2022-12-01T01:48:55;23.02;;;19.58;;
14592;SDS011;7383;52.354;9.756;2022-12-01T01:51:25;23.40;;;20.23;;
14592;SDS011;7383;52.354;9.756;2022-12-01T01:53:57;25.20;;;19.42;;
14592;SDS011;7383;52.354;9.756;2022-12-01T01:56:27;25.88;;;20.42;;
14592;SDS011;7383;52.354;9.756;2022-12-01T01:58:54;23.88;;;19.55;;
14592;SDS011;7383;52.354;9.756;2022-12-01T02:01:23;23.30;;;19.50;;
14592;SDS011;7383;52.354;9.756;2022-12-01T02:03:50;25.30;;;20.67;;
14592;SDS011;7383;52.354;9.756;2022-12-01T02:06:19;25.65;;;20.15;;
14592;SDS011;7383;52.354;9.756;2022-12-01T02:08:47;26.08;;;20.52;;
14592;SDS011;7383;52.354;9.756;2022-12-01T02:11:21;23.23;;;20.15;;
14592;SDS011;7383;52.354;9.756;2022-12-01T02:14:17;24.98;;;20.17;;
14592;SDS011;7383;52.354;9.756;2022-12-01T02:16:58;25.83;;;21.38;;
14592;SDS011;7383;52.354;9.756;2022-12-01T02:22:35;24.35;;;20.88;;
14592;SDS011;7383;52.354;9.756;2022-12-01T02:25:19;25.23;;;20.15;;
14592;SDS011;7383;52.354;9.756;2022-12-01T02:30:43;24.65;;;20.20;;
14592;SDS011;7383;52.354;9.756;2022-12-01T02:33:15;27.75;;;20.80;;
14592;SDS011;7383;52.354;9.756;2022-12-01T02:35:49;26.67;;;21.65;;
14592;SDS011;7383;52.354;9.756;2022-12-01T02:38:27;26.58;;;20.85;;
14592;SDS011;7383;52.354;9.756;2022-12-01T02:40:56;26.70;;;21.35;;
14592;SDS011;7383;52.354;9.756;2022-12-01T02:43:30;28.00;;;20.88;;
14592;SDS011;7383;52.354;9.756;2022-12-01T02:46:03;26.88;;;21.60;;
14592;SDS011;7383;52.354;9.756;2022-12-01T02:48:34;26.80;;;21.00;;
14592;SDS011;7383;52.354;9.756;2022-12-01T02:51:05;27.48;;;21.38;;
14592;SDS011;7383;52.354;9.756;2022-12-01T02:53:37;27.52;;;21.23;;
14592;SDS011;7383;52.354;9.756;2022-12-01T02:56:05;27.52;;;22.20;;
14592;SDS011;7383;52.354;9.756;2022-12-01T02:58:32;27.25;;;20.75;;
14592;SDS011;7383;52.354;9.756;2022-12-01T03:01:10;26.52;;;21.20;;
14592;SDS011;7383;52.354;9.756;2022-12-01T03:03:50;26.25;;;20.80;;
14592;SDS011;7383;52.354;9.756;2022-12-01T03:06:27;26.45;;;21.55;;
14592;SDS011;7383;52.354;9.756;2022-12-01T03:09:05;29.52;;;22.65;;
14592;SDS011;7383;52.354;9.756;2022-12-01T03:11:42;30.08;;;23.42;;
14592;SDS011;7383;52.354;9.756;2022-12-01T03:14:16;27.55;;;21.75;;
14592;SDS011;7383;52.354;9.756;2022-12-01T03:16:51;27.55;;;22.33;;
14592;SDS011;7383;52.354;9.756;2022-12-01T03:19:20;29.50;;;23.42;;
14592;SDS011;7383;52.354;9.756;2022-12-01T03:21:54;32.95;;;24.80;;
14592;SDS011;7383;52.354;9.756;2022-12-01T03:24:27;35.05;;;25.92;;
14592;SDS011;7383;52.354;9.756;2022-12-01T03:26:57;34.17;;;24.83;;
14592;SDS011;7383;52.354;9.756;2022-12-01T03:29:25;37.00;;;26.52;;
14592;SDS011;7383;52.354;9.756;2022-12-01T03:31:58;37.33;;;27.25;;
14592;SDS011;7383;52.354;9.756;2022-12-01T03:34:30;36.45;;;25.75;;
14592;SDS011;7383;52.354;9.756;2022-12-01T03:37:05;37.00;;;26.48;;
14592;SDS011;7383;52.354;9.756;2022-12-01T03:39:36;39.33;;;27.27;;
14592;SDS011;7383;52.354;9.756;2022-12-01T03:42:08;38.67;;;27.90;;
14592;SDS011;7383;52.354;9.756;2022-12-01T03:44:40;35.58;;;24.80;;
14592;SDS011;7383;52.354;9.756;2022-12-01T03:47:13;38.22;;;26.77;;
14592;SDS011;7383;52.354;9.756;2022-12-01T03:49:42;38.95;;;27.00;;
14592;SDS011;7383;52.354;9.756;2022-12-01T03:52:13;38.58;;;27.65;;
14592;SDS011;7383;52.354;9.756;2022-12-01T03:54:46;39.50;;;26.88;;
14592;SDS011;7383;52.354;9.756;2022-12-01T03:57:19;37.40;;;26.92;;
14592;SDS011;7383;52.354;9.756;2022-12-01T03:59:49;44.83;;;29.05;;
14592;SDS011;7383;52.354;9.756;2022-12-01T04:02:17;38.30;;;27.08;;
14592;SDS011;7383;52.354;9.756;2022-12-01T04:04:44;39.55;;;27.55;;
14592;SDS011;7383;52.354;9.756;2022-12-01T04:07:10;41.35;;;28.42;;
14592;SDS011;7383;52.354;9.756;2022-12-01T04:09:38;40.13;;;27.70;;
14592;SDS011;7383;52.354;9.756;2022-12-01T04:12:06;46.80;;;29.55;;
14592;SDS011;7383;52.354;9.756;2022-12-01T04:14:52;39.45;;;26.63;;
14592;SDS011;7383;52.354;9.756;2022-12-01T04:17:20;41.22;;;27.00;;
14592;SDS011;7383;52.354;9.756;2022-12-01T04:19:46;46.28;;;30.25;;
14592;SDS011;7383;52.354;9.756;2022-12-01T04:22:12;43.10;;;27.58;;
14592;SDS011;7383;52.354;9.756;2022-12-01T04:24:39;38.15;;;26.35;;
14592;SDS011;7383;52.354;9.756;2022-12-01T04:27:06;40.17;;;27.90;;
14592;SDS011;7383;52.354;9.756;2022-12-01T04:29:32;43.38;;;29.73;;
14592;SDS011;7383;52.354;9.756;2022-12-01T04:31:58;43.75;;;28.73;;
14592;SDS011;7383;52.354;9.756;2022-12-01T04:34:26;41.28;;;28.65;;
14592;SDS011;7383;52.354;9.756;2022-12-01T04:36:53;38.78;;;26.90;;
14592;SDS011;7383;52.354;9.756;2022-12-01T04:39:19;41.33;;;27.48;;
14592;SDS011;7383;52.354;9.756;2022-12-01T04:41:47;38.00;;;25.95;;
14592;SDS011;7383;52.354;9.756;2022-12-01T04:44:13;37.90;;;26.08;;
14592;SDS011;7383;52.354;9.756;2022-12-01T04:46:40;39.97;;;26.90;;
14592;SDS011;7383;52.354;9.756;2022-12-01T04:49:07;36.10;;;25.15;;
14592;SDS011;7383;52.354;9.756;2022-12-01T04:51:35;39.38;;;26.38;;
14592;SDS011;7383;52.354;9.756;2022-12-01T04:54:02;37.70;;;26.38;;
14592;SDS011;7383;52.354;9.756;2022-12-01T04:56:29;39.78;;;26.73;;
14592;SDS011;7383;52.354;9.756;2022-12-01T04:58:56;40.67;;;27.10;;
14592;SDS011;7383;52.354;9.756;2022-12-01T05:01:23;42.22;;;28.08;;
14592;SDS011;7383;52.354;9.756;2022-12-01T05:03:50;38.13;;;25.67;;
14592;SDS011;7383;52.354;9.756;2022-12-01T05:06:18;41.30;;;27.92;;
14592;SDS011;7383;52.354;9.756;2022-12-01T05:08:48;39.90;;;26.52;;
14592;SDS011;7383;52.354;9.756;2022-12-01T05:11:15;37.88;;;25.02;;
14592;SDS011;7383;52.354;9.756;2022-12-01T05:13:43;34.72;;;24.38;;
14592;SDS011;7383;52.354;9.756;2022-12-01T05:16:12;35.40;;;24.52;;
14592;SDS011;7383;52.354;9.756;2022-12-01T05:18:40;33.90;;;23.30;;
14592;SDS011;7383;52.354;9.756;2022-12-01T05:21:08;33.42;;;22.80;;
14592;SDS011;7383;52.354;9.756;2022-12-01T05:23:35;33.85;;;22.90;;
14592;SDS011;7383;52.354;9.756;2022-12-01T05:26:04;28.35;;;21.45;;
14592;SDS011;7383;52.354;9.756;2022-12-01T05:28:32;31.42;;;23.00;;
14592;SDS011;7383;52.354;9.756;2022-12-01T05:30:59;33.22;;;23.13;;
14592;SDS011;7383;52.354;9.756;2022-12-01T05:33:25;34.13;;;22.25;;
14592;SDS011;7383;52.354;9.756;2022-12-01T05:35:53;30.23;;;20.70;;
14592;SDS011;7383;52.354;9.756;2022-12-01T05:38:20;31.02;;;22.38;;
14592;SDS011;7383;52.354;9.756;2022-12-01T05:40:50;34.75;;;23.23;;
14592;SDS011;7383;52.354;9.756;2022-12-01T05:43:19;32.17;;;22.65;;
14592;SDS011;7383;52.354;9.756;2022-12-01T05:45:46;34.45;;;24.02;;
14592;SDS011;7383;52.354;9.756;2022-12-01T05:48:14;35.15;;;22.40;;
14592;SDS011;7383;52.354;9.756;2022-12-01T05:50:41;33.25;;;21.92;;
14592;SDS011;7383;52.354;9.756;2022-12-01T05:53:09;31.20;;;22.17;;
14592;SDS011;7383;52.354;9.756;2022-12-01T05:55:36;34.58;;;23.42;;
14592;SDS011;7383;52.354;9.756;2022-12-01T05:58:03;34.40;;;22.95;;
14592;SDS011;7383;52.354;9.756;2022-12-01T06:00:31;33.65;;;22.90;;
14592;SDS011;7383;52.354;9.756;2022-12-01T06:02:57;34.00;;;23.35;;
14592;SDS011;7383;52.354;9.756;2022-12-01T06:05:24;32.00;;;23.27;;
14592;SDS011;7383;52.354;9.756;2022-12-01T06:07:50;34.58;;;22.83;;
14592;SDS011;7383;52.354;9.756;2022-12-01T06:10:17;32.45;;;22.17;;
14592;SDS011;7383;52.354;9.756;2022-12-01T06:12:44;35.45;;;23.65;;
14592;SDS011;7383;52.354;9.756;2022-12-01T06:15:11;35.65;;;23.45;;
14592;SDS011;7383;52.354;9.756;2022-12-01T06:17:39;32.45;;;22.48;;
14592;SDS011;7383;52.354;9.756;2022-12-01T06:20:07;34.35;;;22.45;;
14592;SDS011;7383;52.354;9.756;2022-12-01T06:22:34;35.45;;;22.98;;
14592;SDS011;7383;52.354;9.756;2022-12-01T06:25:01;32.05;;;22.05;;
14592;SDS011;7383;52.354;9.756;2022-12-01T06:27:28;36.75;;;23.00;;
14592;SDS011;7383;52.354;9.756;2022-12-01T06:29:54;36.25;;;22.63;;
14592;SDS011;7383;52.354;9.756;2022-12-01T06:32:21;35.05;;;22.52;;
14592;SDS011;7383;52.354;9.756;2022-12-01T06:34:49;37.13;;;23.67;;
14592;SDS011;7383;52.354;9.756;2022-12-01T06:37:16;34.50;;;22.73;;
14592;SDS011;7383;52.354;9.756;2022-12-01T06:39:43;33.92;;;22.73;;
14592;SDS011;7383;52.354;9.756;2022-12-01T06:42:09;34.15;;;22.23;;
14592;SDS011;7383;52.354;9.756;2022-12-01T06:44:36;31.42;;;19.88;;
14592;SDS011;7383;52.354;9.756;2022-12-01T06:47:04;33.50;;;21.42;;
14592;SDS011;7383;52.354;9.756;2022-12-01T06:49:32;31.08;;;19.83;;
14592;SDS011;7383;52.354;9.756;2022-12-01T06:52:00;33.45;;;20.85;;
14592;SDS011;7383;52.354;9.756;2022-12-01T06:54:27;32.83;;;21.20;;
14592;SDS011;7383;52.354;9.756;2022-12-01T06:56:53;31.92;;;20.02;;
14592;SDS011;7383;52.354;9.756;2022-12-01T06:59:20;32.47;;;20.83;;
14592;SDS011;7383;52.354;9.756;2022-12-01T07:01:47;32.50;;;21.40;;
14592;SDS011;7383;52.354;9.756;2022-12-01T07:04:14;32.97;;;20.63;;
14592;SDS011;7383;52.354;9.756;2022-12-01T07:07:23;31.70;;;20.75;;
14592;SDS011;7383;52.354;9.756;2022-12-01T07:29:43;29.60;;;19.48;;
14592;SDS011;7383;52.354;9.756;2022-12-01T07:31:39;27.73;;;19.88;;
14592;SDS011;7383;52.354;9.756;2022-12-01T07:34:09;29.58;;;18.85;;
14592;SDS011;7383;52.354;9.756;2022-12-01T07:36:39;31.60;;;19.95;;
14592;SDS011;7383;52.354;9.756;2022-12-01T07:39:06;30.67;;;20.38;;
14592;SDS011;7383;52.354;9.756;2022-12-01T07:41:35;29.42;;;19.38;;
14592;SDS011;7383;52.354;9.756;2022-12-01T07:44:03;29.90;;;19.15;;
14592;SDS011;7383;52.354;9.756;2022-12-01T07:46:30;28.85;;;19.00;;
14592;SDS011;7383;52.354;9.756;2022-12-01T07:48:57;30.10;;;19.92;;
14592;SDS011;7383;52.354;9.756;2022-12-01T07:51:58;28.63;;;18.92;;
14592;SDS011;7383;52.354;9.756;2022-12-01T07:57:26;28.40;;;19.70;;
14592;SDS011;7383;52.354;9.756;2022-12-01T07:59:53;28.10;;;18.77;;
14592;SDS011;7383;52.354;9.756;2022-12-01T08:02:19;27.38;;;18.00;;
14592;SDS011;7383;52.354;9.756;2022-12-01T08:04:46;27.52;;;18.67;;
14592;SDS011;7383;52.354;9.756;2022-12-01T08:07:12;31.17;;;19.33;;
14592;SDS011;7383;52.354;9.756;2022-12-01T08:09:39;29.90;;;20.83;;
14592;SDS011;7383;52.354;9.756;2022-12-01T08:12:06;32.80;;;20.80;;
14592;SDS011;7383;52.354;9.756;2022-12-01T08:14:34;31.55;;;21.23;;
14592;SDS011;7383;52.354;9.756;2022-12-01T08:17:01;26.98;;;18.85;;
14592;SDS011;7383;52.354;9.756;2022-12-01T08:19:28;32.88;;;20.17;;
14592;SDS011;7383;52.354;9.756;2022-12-01T08:21:54;32.58;;;20.60;;
14592;SDS011;7383;52.354;9.756;2022-12-01T08:24:21;32.83;;;22.15;;
14592;SDS011;7383;52.354;9.756;2022-12-01T08:26:48;34.42;;;21.85;;
14592;SDS011;7383;52.354;9.756;2022-12-01T08:29:14;35.03;;;22.42;;
14592;SDS011;7383;52.354;9.756;2022-12-01T08:31:46;33.78;;;20.52;;
14592;SDS011;7383;52.354;9.756;2022-12-01T08:34:16;32.28;;;20.50;;
14592;SDS011;7383;52.354;9.756;2022-12-01T08:36:43;34.80;;;20.63;;
14592;SDS011;7383;52.354;9.756;2022-12-01T08:39:10;29.50;;;19.52;;
14592;SDS011;7383;52.354;9.756;2022-12-01T08:41:38;31.90;;;19.45;;
14592;SDS011;7383;52.354;9.756;2022-12-01T08:44:05;29.48;;;19.38;;
14592;SDS011;7383;52.354;9.756;2022-12-01T08:46:32;33.15;;;20.65;;
14592;SDS011;7383;52.354;9.756;2022-12-01T08:49:04;34.13;;;21.10;;
14592;SDS011;7383;52.354;9.756;2022-12-01T08:51:32;34.05;;;21.35;;
14592;SDS011;7383;52.354;9.756;2022-12-01T08:54:00;29.20;;;18.95;;
14592;SDS011;7383;52.354;9.756;2022-12-01T08:56:30;33.80;;;21.92;;
14592;SDS011;7383;52.354;9.756;2022-12-01T08:58:58;33.10;;;21.42;;
14592;SDS011;7383;52.354;9.756;2022-12-01T09:01:26;33.17;;;21.33;;
14592;SDS011;7383;52.354;9.756;2022-12-01T09:03:53;32.42;;;20.35;;
14592;SDS011;7383;52.354;9.756;2022-12-01T09:06:39;35.58;;;20.77;;
14592;SDS011;7383;52.354;9.756;2022-12-01T09:09:08;33.92;;;22.05;;
14592;SDS011;7383;52.354;9.756;2022-12-01T09:11:36;36.35;;;22.45;;
14592;SDS011;7383;52.354;9.756;2022-12-01T09:14:07;31.92;;;20.33;;
14592;SDS011;7383;52.354;9.756;2022-12-01T09:16:37;33.65;;;21.38;;
14592;SDS011;7383;52.354;9.756;2022-12-01T09:19:05;37.78;;;23.17;;
14592;SDS011;7383;52.354;9.756;2022-12-01T11:44:17;28.33;;;18.33;;
14592;SDS011;7383;52.354;9.756;2022-12-01T11:46:45;27.60;;;18.30;;
14592;SDS011;7383;52.354;9.756;2022-12-01T12:31:56;31.55;;;19.63;;
14592;SDS011;7383;52.354;9.756;2022-12-01T12:34:36;27.13;;;17.73;;
14592;SDS011;7383;52.354;9.756;2022-12-01T12:37:16;31.35;;;19.02;;
14592;SDS011;7383;52.354;9.756;2022-12-01T12:39:52;29.95;;;19.05;;
14592;SDS011;7383;52.354;9.756;2022-12-01T12:42:33;29.15;;;18.00;;
14592;SDS011;7383;52.354;9.756;2022-12-01T12:45:04;30.88;;;20.15;;
14592;SDS011;7383;52.354;9.756;2022-12-01T12:57:20;31.92;;;18.23;;
14592;SDS011;7383;52.354;9.756;2022-12-01T13:00:12;27.15;;;18.15;;
14592;SDS011;7383;52.354;9.756;2022-12-01T13:02:42;30.67;;;18.38;;
14592;SDS011;7383;52.354;9.756;2022-12-01T13:05:30;29.08;;;18.08;;
14592;SDS011;7383;52.354;9.756;2022-12-01T13:08:02;33.20;;;18.58;;
14592;SDS011;7383;52.354;9.756;2022-12-01T13:10:38;29.45;;;18.13;;
14592;SDS011;7383;52.354;9.756;2022-12-01T13:13:39;31.33;;;18.10;;
14592;SDS011;7383;52.354;9.756;2022-12-01T13:16:34;29.25;;;17.95;;
14592;SDS011;7383;52.354;9.756;2022-12-01T13:19:43;30.42;;;18.05;;
14592;SDS011;7383;52.354;9.756;2022-12-01T13:31:49;29.92;;;18.75;;
14592;SDS011;7383;52.354;9.756;2022-12-01T13:34:19;29.73;;;17.45;;
14592;SDS011;7383;52.354;9.756;2022-12-01T13:36:50;28.27;;;17.35;;
14592;SDS011;7383;52.354;9.756;2022-12-01T13:39:19;26.77;;;16.70;;
14592;SDS011;7383;52.354;9.756;2022-12-01T13:41:57;32.55;;;18.67;;
14592;SDS011;7383;52.354;9.756;2022-12-01T13:44:26;26.77;;;17.05;;
14592;SDS011;7383;52.354;9.756;2022-12-01T13:46:58;26.92;;;17.15;;
14592;SDS011;7383;52.354;9.756;2022-12-01T13:49:37;30.50;;;18.40;;
14592;SDS011;7383;52.354;9.756;2022-12-01T13:52:16;27.63;;;17.48;;
14592;SDS011;7383;52.354;9.756;2022-12-01T13:54:59;28.13;;;17.23;;
14592;SDS011;7383;52.354;9.756;2022-12-01T13:57:30;29.02;;;16.92;;
14592;SDS011;7383;52.354;9.756;2022-12-01T14:00:02;26.40;;;17.73;;
14592;SDS011;7383;52.354;9.756;2022-12-01T14:02:46;27.17;;;16.88;;
14592;SDS011;7383;52.354;9.756;2022-12-01T14:05:53;27.27;;;17.30;;
14592;SDS011;7383;52.354;9.756;2022-12-01T14:08:22;27.95;;;17.30;;
14592;SDS011;7383;52.354;9.756;2022-12-01T14:10:51;24.55;;;16.15;;
14592;SDS011;7383;52.354;9.756;2022-12-01T14:13:20;26.30;;;16.65;;
14592;SDS011;7383;52.354;9.756;2022-12-01T14:15:51;29.38;;;17.75;;
14592;SDS011;7383;52.354;9.756;2022-12-01T14:18:28;24.77;;;16.90;;
14592;SDS011;7383;52.354;9.756;2022-12-01T14:20:58;26.30;;;16.65;;
14592;SDS011;7383;52.354;9.756;2022-12-01T14:23:27;29.17;;;16.98;;
14592;SDS011;7383;52.354;9.756;2022-12-01T14:26:00;24.95;;;16.00;;
14592;SDS011;7383;52.354;9.756;2022-12-01T14:34:46;24.63;;;16.30;;
14592;SDS011;7383;52.354;9.756;2022-12-01T14:37:17;22.40;;;15.55;;
14592;SDS011;7383;52.354;9.756;2022-12-01T14:39:45;25.77;;;17.13;;
14592;SDS011;7383;52.354;9.756;2022-12-01T14:42:48;26.17;;;17.85;;
14592;SDS011;7383;52.354;9.756;2022-12-01T14:48:31;25.13;;;16.27;;
14592;SDS011;7383;52.354;9.756;2022-12-01T14:51:12;26.52;;;17.67;;
14592;SDS011;7383;52.354;9.756;2022-12-01T14:56:30;25.17;;;16.52;;
14592;SDS011;7383;52.354;9.756;2022-12-01T14:59:13;26.25;;;16.23;;
14592;SDS011;7383;52.354;9.756;2022-12-01T15:01:44;26.00;;;16.75;;
14592;SDS011;7383;52.354;9.756;2022-12-01T15:04:10;26.17;;;15.95;;
14592;SDS011;7383;52.354;9.756;2022-12-01T15:06:38;27.05;;;17.33;;
14592;SDS011;7383;52.354;9.756;2022-12-01T15:09:07;26.75;;;16.95;;
14592;SDS011;7383;52.354;9.756;2022-12-01T15:11:35;29.25;;;17.63;;
14592;SDS011;7383;52.354;9.756;2022-12-01T15:14:19;30.23;;;17.98;;
14592;SDS011;7383;52.354;9.756;2022-12-01T15:16:48;29.77;;;18.20;;
14592;SDS011;7383;52.354;9.756;2022-12-01T15:22:12;32.40;;;19.75;;
14592;SDS011;7383;52.354;9.756;2022-12-01T15:24:40;33.13;;;18.95;;
14592;SDS011;7383;52.354;9.756;2022-12-01T15:27:21;31.00;;;18.45;;
14592;SDS011;7383;52.354;9.756;2022-12-01T15:29:50;31.08;;;18.48;;
14592;SDS011;7383;52.354;9.756;2022-12-01T15:32:18;30.85;;;18.30;;
14592;SDS011;7383;52.354;9.756;2022-12-01T15:34:47;30.17;;;18.10;;
14592;SDS011;7383;52.354;9.756;2022-12-01T15:37:19;34.05;;;19.67;;
14592;SDS011;7383;52.354;9.756;2022-12-01T15:39:48;31.65;;;18.60;;
14592;SDS011;7383;52.354;9.756;2022-12-01T15:42:19;27.58;;;16.70;;
14592;SDS011;7383;52.354;9.756;2022-12-01T15:44:55;30.52;;;17.52;;
14592;SDS011;7383;52.354;9.756;2022-12-01T16:04:40;27.27;;;17.60;;
14592;SDS011;7383;52.354;9.756;2022-12-01T16:07:20;25.33;;;15.98;;
14592;SDS011;7383;52.354;9.756;2022-12-01T16:09:54;25.10;;;16.35;;
14592;SDS011;7383;52.354;9.756;2022-12-01T16:12:23;30.02;;;17.63;;
14592;SDS011;7383;52.354;9.756;2022-12-01T16:14:55;26.08;;;17.10;;
14592;SDS011;7383;52.354;9.756;2022-12-01T16:17:38;30.08;;;17.70;;
14592;SDS011;7383;52.354;9.756;2022-12-01T16:20:15;30.40;;;17.45;;
14592;SDS011;7383;52.354;9.756;2022-12-01T16:22:50;26.75;;;16.00;;
14592;SDS011;7383;52.354;9.756;2022-12-01T16:25:22;27.48;;;17.20;;
14592;SDS011;7383;52.354;9.756;2022-12-01T16:27:54;32.95;;;19.20;;
14592;SDS011;7383;52.354;9.756;2022-12-01T16:30:23;29.38;;;17.77;;
14592;SDS011;7383;52.354;9.756;2022-12-01T16:33:36;29.40;;;17.15;;
14592;SDS011;7383;52.354;9.756;2022-12-01T16:36:05;30.05;;;17.98;;
14592;SDS011;7383;52.354;9.756;2022-12-01T16:39:11;28.10;;;17.80;;
14592;SDS011;7383;52.354;9.756;2022-12-01T16:41:31;30.55;;;18.35;;
14592;SDS011;7383;52.354;9.756;2022-12-01T16:48:24;25.42;;;16.30;;
14592;SDS011;7383;52.354;9.756;2022-12-01T16:53:53;28.65;;;17.08;;
14592;SDS011;7383;52.354;9.756;2022-12-01T16:56:25;28.42;;;17.52;;
14592;SDS011;7383;52.354;9.756;2022-12-01T16:58:54;30.25;;;18.13;;
14592;SDS011;7383;52.354;9.756;2022-12-01T17:01:28;29.55;;;16.77;;
14592;SDS011;7383;52.354;9.756;2022-12-01T17:03:55;29.00;;;17.13;;
14592;SDS011;7383;52.354;9.756;2022-12-01T17:06:23;31.05;;;18.95;;
14592;SDS011;7383;52.354;9.756;2022-12-01T17:08:50;30.95;;;18.88;;
14592;SDS011;7383;52.354;9.756;2022-12-01T17:11:19;35.88;;;20.10;;
14592;SDS011;7383;52.354;9.756;2022-12-01T17:13:45;30.60;;;18.30;;
14592;SDS011;7383;52.354;9.756;2022-12-01T17:16:12;30.90;;;17.90;;
14592;SDS011;7383;52.354;9.756;2022-12-01T17:18:39;29.70;;;17.63;;
14592;SDS011;7383;52.354;9.756;2022-12-01T17:21:06;31.38;;;18.00;;
14592;SDS011;7383;52.354;9.756;2022-12-01T17:23:37;29.83;;;18.27;;
14592;SDS011;7383;52.354;9.756;2022-12-01T17:26:08;30.25;;;17.80;;
14592;SDS011;7383;52.354;9.756;2022-12-01T17:28:36;30.77;;;17.80;;
14592;SDS011;7383;52.354;9.756;2022-12-01T17:31:03;29.80;;;18.48;;
14592;SDS011;7383;52.354;9.756;2022-12-01T17:33:37;30.75;;;17.88;;
14592;SDS011;7383;52.354;9.756;2022-12-01T17:36:18;34.13;;;19.70;;
14592;SDS011;7383;52.354;9.756;2022-12-01T17:39:06;32.15;;;18.80;;
14592;SDS011;7383;52.354;9.756;2022-12-01T17:41:35;28.75;;;17.45;;
14592;SDS011;7383;52.354;9.756;2022-12-01T17:44:13;30.33;;;18.27;;
14592;SDS011;7383;52.354;9.756;2022-12-01T17:46:40;31.05;;;18.23;;
14592;SDS011;7383;52.354;9.756;2022-12-01T17:49:09;30.35;;;18.42;;
14592;SDS011;7383;52.354;9.756;2022-12-01T17:51:43;35.00;;;19.20;;
14592;SDS011;7383;52.354;9.756;2022-12-01T17:57:12;32.03;;;18.88;;
14592;SDS011;7383;52.354;9.756;2022-12-01T17:59:38;36.63;;;21.20;;
14592;SDS011;7383;52.354;9.756;2022-12-01T18:02:05;32.97;;;19.73;;
14592;SDS011;7383;52.354;9.756;2022-12-01T18:04:32;32.40;;;17.77;;
14592;SDS011;7383;52.354;9.756;2022-12-01T18:06:59;28.73;;;17.38;;
14592;SDS011;7383;52.354;9.756;2022-12-01T18:09:27;29.20;;;18.80;;
14592;SDS011;7383;52.354;9.756;2022-12-01T18:11:54;28.83;;;17.40;;
14592;SDS011;7383;52.354;9.756;2022-12-01T18:14:22;29.15;;;17.85;;
14592;SDS011;7383;52.354;9.756;2022-12-01T18:16:49;30.38;;;18.42;;
14592;SDS011;7383;52.354;9.756;2022-12-01T18:19:16;32.90;;;19.08;;
14592;SDS011;7383;52.354;9.756;2022-12-01T18:21:44;33.00;;;18.30;;
14592;SDS011;7383;52.354;9.756;2022-12-01T18:24:11;34.15;;;19.23;;
14592;SDS011;7383;52.354;9.756;2022-12-01T18:26:38;32.08;;;18.55;;
14592;SDS011;7383;52.354;9.756;2022-12-01T18:29:07;34.97;;;18.98;;
14592;SDS011;7383;52.354;9.756;2022-12-01T18:31:38;31.55;;;18.35;;
14592;SDS011;7383;52.354;9.756;2022-12-01T18:34:05;32.22;;;17.88;;
14592;SDS011;7383;52.354;9.756;2022-12-01T18:36:33;31.85;;;18.17;;
14592;SDS011;7383;52.354;9.756;2022-12-01T18:39:02;32.80;;;18.48;;
14592;SDS011;7383;52.354;9.756;2022-12-01T18:41:31;28.25;;;17.25;;
14592;SDS011;7383;52.354;9.756;2022-12-01T18:43:59;31.77;;;18.45;;
14592;SDS011;7383;52.354;9.756;2022-12-01T18:46:25;27.60;;;17.27;;
14592;SDS011;7383;52.354;9.756;2022-12-01T18:48:55;29.30;;;18.17;;
14592;SDS011;7383;52.354;9.756;2022-12-01T18:51:26;29.02;;;17.55;;
14592;SDS011;7383;52.354;9.756;2022-12-01T18:53:53;29.40;;;17.42;;
14592;SDS011;7383;52.354;9.756;2022-12-01T18:56:21;30.75;;;16.80;;
14592;SDS011;7383;52.354;9.756;2022-12-01T18:58:52;30.92;;;17.42;;
14592;SDS011;7383;52.354;9.756;2022-12-01T19:01:20;28.60;;;16.88;;
14592;SDS011;7383;52.354;9.756;2022-12-01T19:03:48;28.38;;;17.92;;
14592;SDS011;7383;52.354;9.756;2022-12-01T19:06:16;29.88;;;17.70;;
14592;SDS011;7383;52.354;9.756;2022-12-01T19:08:43;27.90;;;17.42;;
14592;SDS011;7383;52.354;9.756;2022-12-01T19:11:10;26.35;;;17.23;;
14592;SDS011;7383;52.354;9.756;2022-12-01T19:13:39;28.75;;;17.17;;
14592;SDS011;7383;52.354;9.756;2022-12-01T19:16:06;27.08;;;17.08;;
14592;SDS011;7383;52.354;9.756;2022-12-01T19:18:33;27.00;;;16.63;;
14592;SDS011;7383;52.354;9.756;2022-12-01T19:21:00;26.65;;;17.33;;
14592;SDS011;7383;52.354;9.756;2022-12-01T19:23:31;28.48;;;17.88;;
14592;SDS011;7383;52.354;9.756;2022-12-01T19:25:58;27.02;;;16.77;;
14592;SDS011;7383;52.354;9.756;2022-12-01T19:28:29;31.60;;;18.50;;